createdAt,value
2018-12-08T00:00:05.870Z,7.40
2018-12-08T00:02:32.146Z,7.30
2018-12-08T00:04:58.394Z,7.30
2018-12-08T00:07:24.657Z,7.30
2018-12-08T00:09:50.906Z,7.30
2018-12-08T00:12:17.182Z,7.30
2018-12-08T00:14:43.434Z,7.30
2018-12-08T00:17:09.713Z,7.30
2018-12-08T00:19:35.970Z,7.30
2018-12-08T00:22:02.238Z,7.30
2018-12-08T00:24:28.490Z,7.40
2018-12-08T00:26:54.758Z,7.40
2018-12-08T00:29:21.014Z,7.40
2018-12-08T00:31:47.293Z,7.40
2018-12-08T00:34:13.537Z,7.40
2018-12-08T00:36:39.825Z,7.50
2018-12-08T00:39:06.305Z,7.40
2018-12-08T00:41:32.574Z,7.40
2018-12-08T00:43:58.821Z,7.30
2018-12-08T00:46:25.097Z,7.30
2018-12-08T00:48:51.357Z,7.40
2018-12-08T00:51:17.618Z,7.30
2018-12-08T00:53:43.887Z,7.00
2018-12-08T00:56:10.142Z,6.80
2018-12-08T00:58:36.417Z,6.80
2018-12-08T01:01:03.022Z,6.80
2018-12-08T01:03:29.290Z,6.80
2018-12-08T01:05:55.554Z,6.80
2018-12-08T01:08:21.830Z,6.90
2018-12-08T01:10:48.102Z,6.90
2018-12-08T01:13:14.365Z,7.00
2018-12-08T01:15:40.625Z,7.00
2018-12-08T01:18:06.886Z,7.10
2018-12-08T01:20:33.133Z,7.10
2018-12-08T01:22:59.309Z,7.20
2018-12-08T01:25:25.561Z,7.20
2018-12-08T01:27:51.826Z,7.20
2018-12-08T01:30:18.081Z,7.20
2018-12-08T01:32:44.360Z,7.20
2018-12-08T01:35:10.638Z,7.20
2018-12-08T01:37:36.900Z,7.10
2018-12-08T01:40:04.300Z,7.20
2018-12-08T01:42:30.567Z,7.10
2018-12-08T01:44:56.813Z,7.10
2018-12-08T01:47:23.074Z,7.10
2018-12-08T01:49:49.333Z,7.10
2018-12-08T01:52:15.618Z,7.10
2018-12-08T01:54:41.888Z,7.10
2018-12-08T01:57:08.145Z,7.10
2018-12-08T01:59:34.429Z,7.10
2018-12-08T02:02:00.688Z,7.10
2018-12-08T02:04:26.973Z,7.10
2018-12-08T02:06:53.254Z,7.10
2018-12-08T02:09:19.538Z,7.10
2018-12-08T02:11:45.797Z,7.10
2018-12-08T02:14:12.085Z,7.10
2018-12-08T02:16:38.352Z,7.00
2018-12-08T02:19:04.606Z,7.00
2018-12-08T02:21:30.881Z,7.10
2018-12-08T02:23:57.141Z,7.00
2018-12-08T02:26:23.417Z,7.10
2018-12-08T02:28:49.685Z,7.10
2018-12-08T02:31:15.961Z,7.00
2018-12-08T02:33:42.229Z,7.10
2018-12-08T02:36:08.427Z,7.10
2018-12-08T02:38:34.702Z,7.00
2018-12-08T02:41:00.973Z,7.10
2018-12-08T02:43:27.349Z,7.10
2018-12-08T02:45:53.621Z,7.10
2018-12-08T02:48:19.886Z,7.20
2018-12-08T02:50:46.167Z,7.30
2018-12-08T02:53:12.413Z,7.40
2018-12-08T02:55:38.687Z,7.40
2018-12-08T02:58:04.956Z,7.40
2018-12-08T03:00:31.241Z,7.40
2018-12-08T03:02:57.506Z,7.50
2018-12-08T03:05:23.786Z,7.50
2018-12-08T03:07:50.058Z,7.50
2018-12-08T03:10:16.381Z,7.50
2018-12-08T03:12:42.655Z,7.50
2018-12-08T03:15:09.020Z,7.60
2018-12-08T03:17:35.283Z,7.60
2018-12-08T03:20:01.662Z,7.60
2018-12-08T03:22:28.275Z,7.70
2018-12-08T03:24:54.626Z,7.80
2018-12-08T03:27:20.888Z,7.80
2018-12-08T03:29:47.140Z,7.80
2018-12-08T03:32:13.525Z,7.70
2018-12-08T03:34:39.888Z,7.70
2018-12-08T03:37:06.162Z,7.70
2018-12-08T03:39:32.409Z,7.70
2018-12-08T03:41:58.709Z,7.70
2018-12-08T03:44:24.973Z,7.70
2018-12-08T03:46:51.341Z,7.70
2018-12-08T03:49:17.598Z,7.60
2018-12-08T03:51:43.911Z,7.70
2018-12-08T03:54:10.282Z,7.70
2018-12-08T03:56:36.521Z,7.70
2018-12-08T03:59:02.915Z,7.70
2018-12-08T04:01:29.177Z,7.80
2018-12-08T04:03:55.454Z,7.80
2018-12-08T04:06:21.722Z,7.80
2018-12-08T04:08:48.001Z,7.70
2018-12-08T04:11:14.274Z,7.70
2018-12-08T04:13:40.553Z,7.70
2018-12-08T04:16:06.823Z,7.70
2018-12-08T04:18:33.013Z,7.70
2018-12-08T04:20:59.261Z,7.70
2018-12-08T04:23:25.521Z,7.80
2018-12-08T04:25:51.765Z,7.80
2018-12-08T04:28:18.025Z,7.80
2018-12-08T04:30:44.309Z,7.80
2018-12-08T04:33:10.610Z,7.90
2018-12-08T04:35:36.897Z,7.90
2018-12-08T04:38:03.161Z,8.00
2018-12-08T04:40:29.430Z,7.90
2018-12-08T04:42:55.672Z,7.90
2018-12-08T04:45:21.957Z,7.80
2018-12-08T04:47:48.222Z,7.80
2018-12-08T04:50:14.503Z,7.80
2018-12-08T04:52:42.538Z,7.80
2018-12-08T04:55:09.025Z,7.80
2018-12-08T04:57:35.261Z,7.80
2018-12-08T05:00:01.756Z,7.80
2018-12-08T05:02:28.023Z,7.80
2018-12-08T05:04:54.285Z,7.80
2018-12-08T05:07:20.617Z,7.90
2018-12-08T05:09:46.880Z,7.90
2018-12-08T05:12:13.305Z,7.90
2018-12-08T05:14:39.457Z,7.90
2018-12-08T05:17:05.722Z,7.90
2018-12-08T05:19:31.985Z,7.90
2018-12-08T05:21:58.265Z,7.90
2018-12-08T05:24:24.543Z,7.90
2018-12-08T05:26:50.833Z,7.90
2018-12-08T05:29:17.122Z,7.90
2018-12-08T05:31:43.397Z,7.90
2018-12-08T05:34:09.648Z,7.90
2018-12-08T05:36:35.909Z,8.00
2018-12-08T05:39:04.589Z,8.00
2018-12-08T05:41:30.869Z,8.00
2018-12-08T05:43:57.117Z,8.00
2018-12-08T05:46:23.457Z,8.10
2018-12-08T05:48:49.708Z,8.10
2018-12-08T05:51:15.981Z,8.10
2018-12-08T05:53:42.226Z,8.00
2018-12-08T05:56:08.478Z,7.90
2018-12-08T05:58:34.803Z,7.90
2018-12-08T06:01:01.051Z,7.90
2018-12-08T06:03:27.318Z,7.90
2018-12-08T06:05:53.565Z,7.90
2018-12-08T06:08:19.834Z,7.80
2018-12-08T06:10:46.114Z,7.80
2018-12-08T06:13:12.373Z,7.70
2018-12-08T06:15:45.738Z,7.70
2018-12-08T06:18:12.005Z,7.70
2018-12-08T06:20:38.250Z,7.60
2018-12-08T06:23:04.519Z,7.60
2018-12-08T06:25:30.766Z,7.50
2018-12-08T06:28:01.889Z,7.50
2018-12-08T06:30:28.138Z,7.50
2018-12-08T06:32:54.420Z,7.50
2018-12-08T06:35:20.674Z,7.50
2018-12-08T06:37:46.931Z,7.40
2018-12-08T06:40:13.182Z,7.40
2018-12-08T06:42:39.427Z,7.30
2018-12-08T06:45:05.949Z,7.20
2018-12-08T06:47:32.222Z,7.20
2018-12-08T06:49:58.480Z,7.20
2018-12-08T06:52:24.721Z,7.20
2018-12-08T06:54:50.998Z,7.20
2018-12-08T06:57:17.451Z,7.10
2018-12-08T06:59:43.725Z,7.20
2018-12-08T07:02:09.877Z,7.10
2018-12-08T07:04:36.128Z,7.10
2018-12-08T07:07:02.421Z,7.10
2018-12-08T07:09:28.689Z,7.10
2018-12-08T07:11:54.925Z,7.10
2018-12-08T07:14:21.186Z,7.10
2018-12-08T07:16:47.556Z,7.10
2018-12-08T07:19:13.837Z,7.20
2018-12-08T07:21:40.090Z,7.20
2018-12-08T07:24:06.373Z,7.30
2018-12-08T07:26:32.639Z,7.30
2018-12-08T07:28:58.978Z,7.40
2018-12-08T07:31:25.238Z,7.40
2018-12-08T07:33:51.493Z,7.40
2018-12-08T07:36:17.754Z,7.40
2018-12-08T07:38:44.014Z,7.40
2018-12-08T07:41:10.278Z,7.50
2018-12-08T07:43:36.541Z,7.40
2018-12-08T07:46:02.917Z,7.60
2018-12-08T07:48:29.186Z,7.60
2018-12-08T07:50:55.441Z,7.60
2018-12-08T07:53:21.774Z,7.60
2018-12-08T07:55:48.071Z,7.50
2018-12-08T07:58:14.318Z,7.40
2018-12-08T08:00:40.700Z,7.40
2018-12-08T08:03:06.937Z,7.50
2018-12-08T08:05:33.197Z,7.40
2018-12-08T08:07:59.442Z,7.40
2018-12-08T08:10:25.705Z,7.40
2018-12-08T08:12:52.060Z,7.40
2018-12-08T08:15:18.326Z,7.40
2018-12-08T08:17:44.582Z,7.50
2018-12-08T08:20:10.868Z,7.60
2018-12-08T08:22:37.134Z,7.70
2018-12-08T08:25:05.140Z,7.80
2018-12-08T08:27:31.306Z,7.90
2018-12-08T08:29:57.569Z,7.90
2018-12-08T08:32:23.881Z,7.90
2018-12-08T08:34:50.153Z,8.10
2018-12-08T08:37:16.442Z,8.20
2018-12-08T08:39:42.702Z,8.30
2018-12-08T08:42:08.945Z,8.40
2018-12-08T08:44:35.206Z,8.50
2018-12-08T08:47:01.490Z,8.60
2018-12-08T08:49:27.815Z,8.70
2018-12-08T08:51:54.064Z,8.70
2018-12-08T08:54:20.304Z,8.60
2018-12-08T08:56:46.569Z,8.60
2018-12-08T08:59:12.820Z,8.60
2018-12-08T09:01:39.082Z,8.50
2018-12-08T09:04:05.338Z,8.50
2018-12-08T09:06:31.624Z,8.60
2018-12-08T09:08:58.578Z,8.60
2018-12-08T09:11:24.861Z,8.60
2018-12-08T09:13:51.131Z,8.60
2018-12-08T09:16:17.512Z,8.60
2018-12-08T09:18:43.842Z,8.60
2018-12-08T09:21:10.177Z,8.60
2018-12-08T09:23:36.464Z,8.60
2018-12-08T09:26:08.789Z,8.70
2018-12-08T09:28:35.109Z,8.80
2018-12-08T09:31:01.394Z,8.80
2018-12-08T09:33:27.699Z,8.80
2018-12-08T09:35:54.114Z,8.80
2018-12-08T09:38:20.496Z,8.90
2018-12-08T09:40:47.148Z,9.00
2018-12-08T09:43:13.449Z,9.00
2018-12-08T09:45:42.042Z,9.00
2018-12-08T09:48:08.128Z,8.90
2018-12-08T09:50:34.430Z,8.90
2018-12-08T09:53:12.905Z,8.90
2018-12-08T09:55:39.157Z,8.90
2018-12-08T09:58:05.438Z,9.00
2018-12-08T10:00:31.706Z,9.00
2018-12-08T10:03:04.758Z,9.10
2018-12-08T10:05:31.017Z,9.10
2018-12-08T10:07:57.289Z,9.20
2018-12-08T10:10:23.553Z,9.20
2018-12-08T10:12:49.921Z,9.30
2018-12-08T10:15:16.189Z,9.30
2018-12-08T10:17:42.437Z,9.30
2018-12-08T10:20:08.864Z,9.30
2018-12-08T10:22:35.168Z,9.40
2018-12-08T10:25:01.438Z,9.40
2018-12-08T10:27:27.681Z,9.40
2018-12-08T10:29:53.936Z,9.40
2018-12-08T10:32:20.194Z,9.40
2018-12-08T10:34:46.593Z,9.40
2018-12-08T10:37:12.848Z,9.40
2018-12-08T10:39:39.128Z,9.40
2018-12-08T10:42:05.503Z,9.40
2018-12-08T10:44:31.782Z,9.40
2018-12-08T10:46:58.137Z,9.50
2018-12-08T10:49:24.401Z,9.50
2018-12-08T10:51:50.665Z,9.50
2018-12-08T10:54:24.866Z,9.60
2018-12-08T10:56:51.397Z,9.70
2018-12-08T10:59:17.636Z,9.70
2018-12-08T11:01:49.957Z,9.70
2018-12-08T11:04:16.205Z,9.60
2018-12-08T11:06:49.201Z,9.60
2018-12-08T11:09:15.449Z,9.60
2018-12-08T11:11:41.737Z,9.70
2018-12-08T11:14:08.020Z,9.60
2018-12-08T11:16:34.290Z,9.60
2018-12-08T11:19:00.538Z,9.50
2018-12-08T11:21:26.811Z,9.50
2018-12-08T11:23:53.057Z,9.30
2018-12-08T11:26:19.313Z,9.20
2018-12-08T11:28:45.565Z,9.20
2018-12-08T11:31:11.825Z,9.20
2018-12-08T11:33:38.306Z,9.20
2018-12-08T11:36:04.696Z,9.30
2018-12-08T11:38:30.981Z,9.40
2018-12-08T11:40:57.369Z,9.40
2018-12-08T11:43:23.680Z,9.40
2018-12-08T11:45:50.046Z,9.40
2018-12-08T11:48:16.451Z,9.30
2018-12-08T11:50:42.717Z,9.30
2018-12-08T11:53:09.085Z,9.30
2018-12-08T11:55:35.341Z,9.30
2018-12-08T11:58:01.585Z,9.30
2018-12-08T12:00:27.866Z,9.40
2018-12-08T12:02:54.863Z,9.40
2018-12-08T12:05:21.149Z,9.40
2018-12-08T12:07:54.441Z,9.40
2018-12-08T12:10:20.700Z,9.50
2018-12-08T12:12:46.948Z,9.40
2018-12-08T12:15:13.218Z,9.40
2018-12-08T12:17:39.545Z,9.50
2018-12-08T12:20:06.727Z,9.60
2018-12-08T12:22:33.012Z,9.60
2018-12-08T12:24:59.406Z,9.70
2018-12-08T12:27:25.694Z,9.70
2018-12-08T12:29:51.946Z,9.80
2018-12-08T12:32:18.210Z,9.80
2018-12-08T12:34:44.457Z,9.80
2018-12-08T12:37:10.725Z,9.90
2018-12-08T12:39:36.995Z,9.90
2018-12-08T12:42:04.499Z,10.00
2018-12-08T12:44:31.245Z,10.00
2018-12-08T12:46:57.644Z,10.00
2018-12-08T12:49:23.969Z,10.10
2018-12-08T12:51:50.274Z,10.10
2018-12-08T12:54:16.531Z,10.10
2018-12-08T12:56:42.794Z,10.10
2018-12-08T12:59:13.870Z,10.10
2018-12-08T13:01:40.381Z,10.10
2018-12-08T13:04:06.678Z,10.20
2018-12-08T13:06:32.942Z,10.20
2018-12-08T13:08:59.572Z,10.10
2018-12-08T13:11:25.866Z,10.10
2018-12-08T13:13:52.205Z,10.10
2018-12-08T13:16:18.485Z,10.00
2018-12-08T13:18:44.847Z,10.10
2018-12-08T13:21:11.114Z,10.10
2018-12-08T13:23:37.475Z,10.10
2018-12-08T13:26:03.737Z,10.10
2018-12-08T13:28:29.997Z,10.10
2018-12-08T13:33:50.102Z,10.20
2018-12-08T13:36:16.374Z,10.20
2018-12-08T13:38:42.523Z,10.20
2018-12-08T13:41:08.792Z,10.30
2018-12-08T13:43:35.042Z,10.30
2018-12-08T13:46:01.325Z,10.30
2018-12-08T13:48:28.017Z,10.30
2018-12-08T13:50:54.945Z,10.30
2018-12-08T13:53:21.218Z,10.30
2018-12-08T13:55:47.470Z,10.30
2018-12-08T13:58:13.754Z,10.30
2018-12-08T14:00:40.015Z,10.30
2018-12-08T14:03:06.413Z,10.30
2018-12-08T14:05:32.658Z,10.40
2018-12-08T14:07:58.933Z,10.30
2018-12-08T14:10:25.319Z,10.30
2018-12-08T14:12:51.601Z,10.40
2018-12-08T14:15:17.861Z,10.40
2018-12-08T14:17:51.070Z,10.40
2018-12-08T14:20:22.550Z,10.40
2018-12-08T14:22:48.946Z,10.40
2018-12-08T14:25:15.433Z,10.40
2018-12-08T14:27:42.111Z,10.30
2018-12-08T14:30:08.589Z,10.30
2018-12-08T14:32:34.994Z,10.30
2018-12-08T14:35:01.218Z,10.40
2018-12-08T14:37:27.474Z,10.40
2018-12-08T14:39:55.433Z,10.40
2018-12-08T14:42:21.697Z,10.40
2018-12-08T14:44:47.957Z,10.40
2018-12-08T14:47:14.237Z,10.40
2018-12-08T14:49:40.537Z,10.50
2018-12-08T14:52:06.814Z,10.40
2018-12-08T14:54:33.077Z,10.50
2018-12-08T14:56:59.353Z,10.50
2018-12-08T14:59:25.614Z,10.50
2018-12-08T15:01:58.817Z,10.40
2018-12-08T15:04:29.084Z,10.40
2018-12-08T15:06:55.334Z,10.30
2018-12-08T15:09:21.590Z,10.30
2018-12-08T15:11:47.853Z,10.30
2018-12-08T15:14:14.130Z,10.30
2018-12-08T15:16:40.382Z,10.30
2018-12-08T15:19:06.656Z,10.30
2018-12-08T15:21:32.916Z,10.30
2018-12-08T15:23:59.217Z,10.30
2018-12-08T15:26:25.588Z,10.30
2018-12-08T15:28:51.881Z,10.30
2018-12-08T15:31:18.066Z,10.30
2018-12-08T15:33:44.358Z,10.20
2018-12-08T15:36:10.721Z,10.20
2018-12-08T15:38:37.118Z,10.20
2018-12-08T15:41:03.497Z,10.10
2018-12-08T15:43:29.777Z,10.20
2018-12-08T15:45:56.205Z,10.20
2018-12-08T15:48:22.445Z,10.30
2018-12-08T15:50:55.724Z,10.20
2018-12-08T15:53:21.969Z,10.30
2018-12-08T15:55:55.226Z,10.30
2018-12-08T15:58:21.591Z,10.30
2018-12-08T16:00:47.978Z,10.30
2018-12-08T16:03:14.237Z,10.30
2018-12-08T16:05:40.488Z,10.40
2018-12-08T16:08:06.801Z,10.40
2018-12-08T16:10:33.343Z,10.40
2018-12-08T16:12:59.605Z,10.40
2018-12-08T16:15:25.986Z,10.40
2018-12-08T16:17:52.240Z,10.40
2018-12-08T16:20:18.489Z,10.50
2018-12-08T16:22:44.672Z,10.50
2018-12-08T16:25:10.937Z,10.60
2018-12-08T16:27:37.328Z,10.50
2018-12-08T16:30:05.634Z,10.50
2018-12-08T16:32:31.942Z,10.50
2018-12-08T16:34:58.201Z,10.60
2018-12-08T16:37:24.493Z,10.60
2018-12-08T16:39:50.749Z,10.50
2018-12-08T16:42:17.134Z,10.50
2018-12-08T16:44:43.421Z,10.50
2018-12-08T16:47:09.814Z,10.40
2018-12-08T16:49:36.075Z,10.40
2018-12-08T16:52:04.325Z,10.30
2018-12-08T16:54:30.717Z,10.30
2018-12-08T16:56:56.973Z,10.30
2018-12-08T16:59:23.237Z,10.30
2018-12-08T17:01:51.738Z,10.20
2018-12-08T17:04:19.978Z,10.20
2018-12-08T17:06:46.481Z,10.20
2018-12-08T17:09:12.858Z,10.20
2018-12-08T17:11:39.172Z,10.20
2018-12-08T17:14:05.552Z,10.20
2018-12-08T17:16:31.906Z,10.20
2018-12-08T17:18:58.166Z,10.00
2018-12-08T17:21:24.446Z,10.10
2018-12-08T17:23:50.697Z,10.00
2018-12-08T17:26:16.978Z,10.00
2018-12-08T17:28:43.562Z,9.90
2018-12-08T17:31:09.821Z,10.00
2018-12-08T17:33:36.209Z,9.90
2018-12-08T17:36:02.475Z,9.90
2018-12-08T17:38:28.746Z,9.90
2018-12-08T17:40:55.029Z,9.80
2018-12-08T17:43:21.274Z,9.80
2018-12-08T17:45:47.621Z,9.90
2018-12-08T17:48:13.805Z,9.90
2018-12-08T17:50:40.197Z,9.90
2018-12-08T17:53:06.457Z,9.80
2018-12-08T17:55:32.937Z,9.80
2018-12-08T17:57:59.182Z,9.90
2018-12-08T18:00:25.497Z,9.90
2018-12-08T18:02:51.750Z,9.90
2018-12-08T18:05:18.145Z,9.90
2018-12-08T18:07:44.695Z,10.00
2018-12-08T18:10:10.997Z,10.00
2018-12-08T18:12:37.309Z,10.00
2018-12-08T18:15:03.830Z,10.10
2018-12-08T18:17:30.098Z,9.90
2018-12-08T18:19:56.366Z,9.90
2018-12-08T18:22:22.722Z,9.90
2018-12-08T18:24:49.082Z,9.90
2018-12-08T18:27:15.353Z,9.90
2018-12-08T18:29:41.613Z,9.80
2018-12-08T18:32:07.890Z,9.70
2018-12-08T18:34:34.130Z,9.70
2018-12-08T18:37:00.501Z,9.60
2018-12-08T18:39:26.750Z,9.60
2018-12-08T18:41:52.949Z,9.60
2018-12-08T18:44:19.206Z,9.60
2018-12-08T18:46:45.533Z,9.60
2018-12-08T18:49:11.828Z,9.60
2018-12-08T18:51:38.182Z,9.50
2018-12-08T18:54:04.443Z,9.40
2018-12-08T18:56:30.733Z,9.50
2018-12-08T18:58:57.016Z,9.40
2018-12-08T19:01:23.261Z,9.40
2018-12-08T19:03:49.529Z,9.40
2018-12-08T19:06:15.794Z,9.40
2018-12-08T19:08:42.078Z,9.40
2018-12-08T19:11:08.407Z,9.50
2018-12-08T19:13:34.692Z,9.50
2018-12-08T19:16:00.990Z,9.50
2018-12-08T19:18:27.336Z,9.50
2018-12-08T19:20:53.628Z,9.50
2018-12-08T19:23:19.918Z,9.60
2018-12-08T19:25:46.173Z,9.60
2018-12-08T19:28:12.542Z,9.60
2018-12-08T19:30:38.901Z,9.70
2018-12-08T19:33:05.281Z,9.70
2018-12-08T19:35:31.550Z,9.80
2018-12-08T19:37:57.861Z,9.80
2018-12-08T19:40:24.141Z,9.80
2018-12-08T19:42:50.320Z,9.80
2018-12-08T19:45:16.513Z,9.90
2018-12-08T19:47:42.794Z,9.90
2018-12-08T19:50:09.100Z,10.10
2018-12-08T19:52:35.378Z,10.20
2018-12-08T19:55:01.759Z,10.30
2018-12-08T19:57:28.285Z,10.40
2018-12-08T19:59:54.574Z,10.40
2018-12-08T20:02:20.832Z,10.40
2018-12-08T20:04:47.109Z,10.50
2018-12-08T20:07:13.362Z,10.40
2018-12-08T20:09:39.770Z,10.20
2018-12-08T20:12:07.109Z,10.20
2018-12-08T20:14:33.437Z,10.10
2018-12-08T20:16:59.694Z,10.00
2018-12-08T20:19:25.977Z,9.90
2018-12-08T20:21:52.329Z,9.90
2018-12-08T20:24:18.671Z,9.80
2018-12-08T20:26:44.894Z,9.80
2018-12-08T20:29:11.058Z,9.80
2018-12-08T20:31:42.431Z,9.80
2018-12-08T20:34:08.694Z,9.80
2018-12-08T20:36:34.968Z,9.80
2018-12-08T20:39:01.213Z,9.80
2018-12-08T20:41:27.501Z,9.90
2018-12-08T20:43:53.750Z,10.00
2018-12-08T20:46:20.002Z,10.30
2018-12-08T20:48:46.265Z,10.50
2018-12-08T20:51:12.531Z,10.80
2018-12-08T20:53:38.780Z,10.90
2018-12-08T20:56:05.049Z,11.00
2018-12-08T20:58:31.326Z,11.00
2018-12-08T21:00:57.656Z,11.00
2018-12-08T21:03:24.050Z,11.00
2018-12-08T21:05:50.409Z,11.00
2018-12-08T21:08:16.837Z,11.00
2018-12-08T21:10:43.130Z,11.10
2018-12-08T21:13:09.471Z,11.10
2018-12-08T21:15:35.748Z,11.10
2018-12-08T21:18:02.167Z,11.00
2018-12-08T21:20:28.638Z,11.00
2018-12-08T21:22:54.913Z,10.90
2018-12-08T21:25:21.167Z,10.70
2018-12-08T21:27:47.445Z,10.60
2018-12-08T21:30:13.697Z,10.40
2018-12-08T21:32:40.049Z,10.40
2018-12-08T21:35:06.337Z,10.40
2018-12-08T21:37:32.738Z,10.30
2018-12-08T21:39:59.001Z,10.30
2018-12-08T21:42:25.267Z,10.30
2018-12-08T21:44:51.570Z,10.30
2018-12-08T21:47:17.854Z,10.30
2018-12-08T21:49:44.121Z,10.40
2018-12-08T21:52:10.385Z,10.50
2018-12-08T21:54:36.634Z,10.50
2018-12-08T21:57:02.896Z,10.60
2018-12-08T21:59:29.487Z,10.60
2018-12-08T22:01:55.783Z,10.60
2018-12-08T22:04:22.042Z,10.60
2018-12-08T22:06:48.301Z,10.70
2018-12-08T22:09:14.566Z,10.70
2018-12-08T22:11:40.892Z,10.70
2018-12-08T22:14:07.234Z,10.80
2018-12-08T22:16:33.496Z,10.80
2018-12-08T22:18:59.759Z,10.80
2018-12-08T22:21:26.082Z,10.80
2018-12-08T22:23:52.381Z,10.90
2018-12-08T22:26:18.595Z,10.90
2018-12-08T22:28:46.764Z,10.80
2018-12-08T22:31:13.054Z,10.70
2018-12-08T22:33:39.242Z,10.70
2018-12-08T22:36:05.619Z,10.70
2018-12-08T22:38:31.818Z,10.60
2018-12-08T22:40:58.054Z,10.50
2018-12-08T22:43:24.338Z,10.50
2018-12-08T22:45:58.031Z,10.50
2018-12-08T22:48:24.306Z,10.40
2018-12-08T22:50:50.557Z,10.40
2018-12-08T22:53:16.927Z,10.40
2018-12-08T22:55:43.282Z,10.40
2018-12-08T22:58:09.605Z,10.50
2018-12-08T23:00:43.984Z,10.60
2018-12-08T23:03:10.386Z,10.50
2018-12-08T23:05:36.657Z,10.50
2018-12-08T23:08:02.928Z,10.50
2018-12-08T23:10:29.213Z,10.60
2018-12-08T23:12:55.473Z,10.60
2018-12-08T23:15:21.746Z,10.70
2018-12-08T23:17:48.230Z,10.60
2018-12-08T23:20:14.421Z,10.70
2018-12-08T23:22:40.781Z,10.60
2018-12-08T23:25:07.286Z,10.60
2018-12-08T23:27:33.565Z,10.70
2018-12-08T23:29:59.833Z,10.70
2018-12-08T23:32:26.110Z,10.70
2018-12-08T23:34:52.358Z,10.70
2018-12-08T23:37:18.626Z,10.50
2018-12-08T23:39:44.918Z,10.30
2018-12-08T23:42:11.193Z,10.00
2018-12-08T23:44:37.449Z,9.80
2018-12-08T23:47:03.731Z,9.80
2018-12-08T23:49:30.034Z,9.70
2018-12-08T23:51:56.301Z,9.70
2018-12-08T23:54:25.389Z,9.80
2018-12-08T23:56:53.718Z,9.90
2018-12-08T23:59:19.998Z,10.00
